createdAt,value
2022-12-19T00:03:05.015Z,30.40
2022-12-19T00:06:13.352Z,30.40
2022-12-19T00:09:21.240Z,30.70
2022-12-19T00:12:30.810Z,30.40
2022-12-19T00:15:39.122Z,30.40
2022-12-19T00:18:47.330Z,30.40
2022-12-19T00:21:55.491Z,30.50
2022-12-19T00:25:03.640Z,30.10
2022-12-19T00:28:13.538Z,30.10
2022-12-19T00:31:22.089Z,30.10
2022-12-19T00:34:30.082Z,30.20
2022-12-19T00:37:38.328Z,30.10
2022-12-19T00:40:49.945Z,30.00
2022-12-19T00:44:00.496Z,30.20
2022-12-19T00:47:08.649Z,30.00
2022-12-19T00:50:18.809Z,30.00
2022-12-19T00:53:27.113Z,29.90
2022-12-19T00:56:37.746Z,29.90
2022-12-19T00:59:49.668Z,30.20
2022-12-19T01:02:59.832Z,29.80
2022-12-19T01:06:10.804Z,29.70
2022-12-19T01:09:21.555Z,29.70
2022-12-19T01:12:47.112Z,29.70
2022-12-19T01:15:56.342Z,29.90
2022-12-19T01:19:04.695Z,30.00
2022-12-19T01:22:15.355Z,30.00
2022-12-19T01:25:23.778Z,30.10
2022-12-19T01:28:31.871Z,30.00
2022-12-19T01:31:43.104Z,29.90
2022-12-19T01:34:51.269Z,29.90
2022-12-19T01:38:07.965Z,30.00
2022-12-19T01:41:16.585Z,30.70
2022-12-19T01:44:25.016Z,30.10
2022-12-19T01:47:35.964Z,30.20
2022-12-19T01:51:00.500Z,30.10
2022-12-19T01:54:12.525Z,30.40
2022-12-19T01:57:20.660Z,30.20
2022-12-19T02:00:28.870Z,30.10
2022-12-19T02:03:38.936Z,30.30
2022-12-19T02:06:51.073Z,30.90
2022-12-19T02:09:59.834Z,30.70
2022-12-19T02:13:15.678Z,30.30
2022-12-19T02:16:30.292Z,30.60
2022-12-19T02:20:11.993Z,30.20
2022-12-19T02:23:37.248Z,30.40
2022-12-19T02:27:38.494Z,30.10
2022-12-19T02:30:56.692Z,30.30
2022-12-19T02:34:09.918Z,30.20
2022-12-19T02:37:27.304Z,30.30
2022-12-19T02:40:39.551Z,30.50
2022-12-19T02:43:50.072Z,30.40
2022-12-19T02:47:08.468Z,30.60
2022-12-19T02:50:18.016Z,30.10
2022-12-19T02:53:26.377Z,30.10
2022-12-19T02:56:44.210Z,30.40
2022-12-19T02:59:58.418Z,30.30
2022-12-19T03:03:12.849Z,30.70
2022-12-19T03:06:23.188Z,30.90
2022-12-19T03:09:34.781Z,30.40
2022-12-19T03:12:46.574Z,30.80
2022-12-19T03:15:54.802Z,30.50
2022-12-19T03:19:04.094Z,30.50
2022-12-19T03:22:12.044Z,30.40
2022-12-19T03:25:20.288Z,30.40
2022-12-19T03:28:31.426Z,30.20
2022-12-19T03:31:39.706Z,30.10
2022-12-19T03:34:50.401Z,30.20
2022-12-19T03:37:59.023Z,30.00
2022-12-19T03:41:07.725Z,30.00
2022-12-19T03:44:14.771Z,30.00
2022-12-19T03:47:24.940Z,29.90
2022-12-19T03:50:40.313Z,29.90
2022-12-19T03:53:52.659Z,30.00
2022-12-19T03:57:03.226Z,30.00
2022-12-19T04:00:12.792Z,30.30
2022-12-19T04:03:21.204Z,29.80
2022-12-19T04:06:31.243Z,29.80
2022-12-19T04:09:39.503Z,29.80
2022-12-19T04:12:50.284Z,30.00
2022-12-19T04:16:01.499Z,30.10
2022-12-19T04:19:11.829Z,30.00
2022-12-19T04:22:23.557Z,30.30
2022-12-19T04:25:35.052Z,30.00
2022-12-19T04:28:44.789Z,30.30
2022-12-19T04:31:52.848Z,30.40
2022-12-19T04:35:04.185Z,30.50
2022-12-19T04:38:13.691Z,30.20
2022-12-19T04:41:22.021Z,30.20
2022-12-19T04:44:30.299Z,30.50
2022-12-19T04:47:38.246Z,30.60
2022-12-19T04:50:46.035Z,30.20
2022-12-19T04:53:55.414Z,30.40
2022-12-19T04:57:03.665Z,30.50
2022-12-19T05:00:12.829Z,30.00
2022-12-19T05:03:20.684Z,30.50
2022-12-19T05:06:28.928Z,30.20
2022-12-19T05:09:38.483Z,30.60
2022-12-19T05:12:46.472Z,30.30
2022-12-19T05:15:57.755Z,30.30
2022-12-19T05:19:05.982Z,30.30
2022-12-19T05:22:14.113Z,30.40
2022-12-19T05:25:23.505Z,30.40
2022-12-19T05:28:32.034Z,30.30
2022-12-19T05:31:39.964Z,30.80
2022-12-19T05:34:47.993Z,30.80
2022-12-19T05:37:56.248Z,30.50
2022-12-19T05:41:09.332Z,30.30
2022-12-19T05:44:17.489Z,30.20
2022-12-19T05:47:25.726Z,30.10
2022-12-19T05:50:33.869Z,30.30
2022-12-19T05:53:50.067Z,30.40
2022-12-19T05:56:59.665Z,30.20
2022-12-19T06:00:12.213Z,30.10
2022-12-19T06:03:23.137Z,30.10
2022-12-19T06:06:31.029Z,30.00
2022-12-19T06:09:39.091Z,30.10
2022-12-19T06:12:48.498Z,30.30
2022-12-19T06:16:00.057Z,30.50
2022-12-19T06:19:07.932Z,30.50
2022-12-19T06:22:16.189Z,30.40
2022-12-19T06:25:24.486Z,30.60
2022-12-19T06:28:34.083Z,30.60
2022-12-19T06:31:42.091Z,30.30
2022-12-19T06:35:05.608Z,30.50
2022-12-19T06:38:13.884Z,30.30
2022-12-19T06:41:39.274Z,30.00
2022-12-19T06:44:48.822Z,29.80
2022-12-19T06:47:57.632Z,29.70
2022-12-19T06:51:08.041Z,30.00
2022-12-19T06:54:16.256Z,29.80
2022-12-19T06:57:24.586Z,29.70
2022-12-19T07:00:37.606Z,29.70
2022-12-19T07:03:45.744Z,29.70
2022-12-19T07:06:54.018Z,29.60
2022-12-19T07:10:02.119Z,29.60
2022-12-19T07:13:10.178Z,29.50
2022-12-19T07:16:20.420Z,29.70
2022-12-19T07:19:28.592Z,29.60
2022-12-19T07:22:36.849Z,29.80
2022-12-19T07:25:44.962Z,29.90
2022-12-19T07:28:52.940Z,30.20
2022-12-19T07:32:02.698Z,30.10
2022-12-19T07:35:11.021Z,30.00
2022-12-19T07:38:18.992Z,30.40
2022-12-19T07:41:27.346Z,30.40
2022-12-19T07:44:35.218Z,30.00
2022-12-19T07:47:44.737Z,30.00
2022-12-19T07:50:52.854Z,30.00
2022-12-19T07:54:01.103Z,30.00
2022-12-19T07:57:10.184Z,30.00
2022-12-19T08:00:18.902Z,30.00
2022-12-19T08:03:29.278Z,30.20
2022-12-19T08:06:41.114Z,30.30
2022-12-19T08:09:49.576Z,30.10
2022-12-19T08:12:57.737Z,30.30
2022-12-19T08:16:06.172Z,30.10
2022-12-19T08:19:15.633Z,30.00
2022-12-19T08:22:24.004Z,30.00
2022-12-19T08:25:31.949Z,30.20
2022-12-19T08:28:39.950Z,30.00
2022-12-19T08:31:47.959Z,30.00
2022-12-19T08:34:57.532Z,30.00
2022-12-19T08:38:06.525Z,30.30
2022-12-19T08:41:14.807Z,30.00
2022-12-19T08:44:22.965Z,30.20
2022-12-19T08:47:30.847Z,30.00
2022-12-19T08:50:40.607Z,30.00
2022-12-19T08:53:48.812Z,30.00
2022-12-19T08:56:56.785Z,30.10
2022-12-19T09:00:05.951Z,30.30
2022-12-19T09:03:15.329Z,30.20
2022-12-19T09:06:28.350Z,30.10
2022-12-19T09:09:36.421Z,30.20
2022-12-19T09:12:44.620Z,30.50
2022-12-19T09:16:00.765Z,30.30
2022-12-19T09:19:15.501Z,30.30
2022-12-19T09:22:29.443Z,30.40
2022-12-19T09:25:37.941Z,30.70
2022-12-19T09:28:46.816Z,30.80
2022-12-19T09:31:56.668Z,30.90
2022-12-19T09:35:05.461Z,30.60
2022-12-19T09:38:14.735Z,30.70
2022-12-19T09:41:51.563Z,30.40
2022-12-19T09:45:08.273Z,30.40
2022-12-19T09:48:24.104Z,30.40
2022-12-19T09:51:35.634Z,30.20
2022-12-19T09:54:46.552Z,30.40
2022-12-19T09:57:58.365Z,30.10
2022-12-19T10:01:14.211Z,30.00
2022-12-19T10:04:22.478Z,29.90
2022-12-19T10:08:01.475Z,30.00
2022-12-19T10:12:42.763Z,30.00
2022-12-19T10:14:43.922Z,30.40
2022-12-19T10:18:05.331Z,30.40
2022-12-19T10:21:17.480Z,30.30
2022-12-19T10:25:08.551Z,30.40
2022-12-19T10:28:26.526Z,30.70
2022-12-19T10:31:36.770Z,30.70
2022-12-19T10:34:45.404Z,30.90
2022-12-19T10:37:54.909Z,31.10
2022-12-19T10:41:12.012Z,30.40
2022-12-19T10:44:21.361Z,31.00
2022-12-19T10:47:29.625Z,30.50
2022-12-19T10:50:38.237Z,31.00
2022-12-19T10:53:46.969Z,31.30
2022-12-19T10:56:55.863Z,30.90
2022-12-19T11:00:07.646Z,31.30
2022-12-19T11:03:17.693Z,31.10
2022-12-19T11:06:50.314Z,31.90
2022-12-19T11:10:41.254Z,31.10
2022-12-19T11:17:32.312Z,30.80
2022-12-19T11:24:01.199Z,30.80
2022-12-19T11:29:26.598Z,31.10
2022-12-19T11:29:33.188Z,31.00
2022-12-19T11:30:37.607Z,31.50
2022-12-19T11:34:35.766Z,31.10
2022-12-19T11:37:45.752Z,31.00
2022-12-19T11:40:55.949Z,31.00
2022-12-19T11:44:05.949Z,31.10
2022-12-19T11:47:18.912Z,31.10
2022-12-19T11:50:28.787Z,30.80
2022-12-19T11:53:41.283Z,31.30
2022-12-19T11:56:49.232Z,31.00
2022-12-19T12:00:02.982Z,31.10
2022-12-19T12:03:25.957Z,31.10
2022-12-19T12:06:36.489Z,30.90
2022-12-19T12:15:29.326Z,31.10
2022-12-19T12:22:48.675Z,31.10
2022-12-19T12:29:36.188Z,31.20
2022-12-19T12:31:18.476Z,31.20
2022-12-19T12:31:52.739Z,31.10
2022-12-19T12:31:53.065Z,31.10
2022-12-19T12:35:40.782Z,31.70
2022-12-19T12:38:34.359Z,31.50
2022-12-19T12:42:07.364Z,31.80
2022-12-19T12:45:20.320Z,31.70
2022-12-19T12:48:30.091Z,31.50
2022-12-19T12:51:38.197Z,31.80
2022-12-19T12:54:46.510Z,31.40
2022-12-19T12:57:56.363Z,31.50
2022-12-19T13:01:09.528Z,31.10
2022-12-19T13:04:21.595Z,31.10
2022-12-19T13:07:31.586Z,31.00
2022-12-19T13:10:40.265Z,31.10
2022-12-19T13:13:58.065Z,30.90
2022-12-19T13:17:06.438Z,30.80
2022-12-19T13:20:40.228Z,30.80
2022-12-19T13:23:48.216Z,30.90
2022-12-19T13:26:56.288Z,31.20
2022-12-19T13:30:16.304Z,31.00
2022-12-19T13:33:25.601Z,31.00
2022-12-19T13:39:49.008Z,31.40
2022-12-19T13:40:32.473Z,31.40
2022-12-19T13:43:47.564Z,31.60
2022-12-19T13:46:57.152Z,32.70
2022-12-19T13:50:06.663Z,31.70
2022-12-19T13:53:16.365Z,31.50
2022-12-19T13:56:24.251Z,31.70
2022-12-19T13:59:34.917Z,31.90
2022-12-19T14:02:47.964Z,32.00
2022-12-19T14:06:16.177Z,32.00
2022-12-19T14:11:32.335Z,32.10
2022-12-19T14:13:47.210Z,32.10
2022-12-19T14:16:43.940Z,32.10
2022-12-19T14:20:06.715Z,32.00
2022-12-19T14:23:43.886Z,31.80
2022-12-19T14:28:26.719Z,32.60
2022-12-19T14:30:28.110Z,31.70
2022-12-19T14:33:59.007Z,32.10
2022-12-19T14:37:31.553Z,32.20
2022-12-19T14:41:07.488Z,32.20
2022-12-19T14:54:03.000Z,32.00
2022-12-19T14:54:21.093Z,32.00
2022-12-19T14:54:25.677Z,32.20
2022-12-19T14:56:03.759Z,32.60
2022-12-19T14:58:54.885Z,32.90
2022-12-19T15:01:52.462Z,31.90
2022-12-19T15:05:02.807Z,32.30
2022-12-19T15:08:11.269Z,32.30
2022-12-19T15:11:53.789Z,32.10
2022-12-19T15:15:18.736Z,32.40
2022-12-19T15:18:28.183Z,32.00
2022-12-19T15:21:36.606Z,32.10
2022-12-19T15:24:44.685Z,32.00
2022-12-19T15:27:53.859Z,32.50
2022-12-19T15:31:04.201Z,32.50
2022-12-19T15:34:34.736Z,32.30
2022-12-19T15:37:43.523Z,32.50
2022-12-19T15:40:51.773Z,32.20
2022-12-19T15:44:04.633Z,32.30
2022-12-19T15:47:16.309Z,32.20
2022-12-19T15:50:25.286Z,32.60
2022-12-19T15:53:40.712Z,32.30
2022-12-19T15:56:50.507Z,32.50
2022-12-19T16:00:00.449Z,32.60
2022-12-19T16:03:23.815Z,32.50
2022-12-19T16:06:32.753Z,33.00
2022-12-19T16:09:40.974Z,32.60
2022-12-19T16:12:50.976Z,33.20
2022-12-19T16:16:00.421Z,33.70
2022-12-19T16:19:21.764Z,33.00
2022-12-19T16:22:30.234Z,32.50
2022-12-19T16:25:40.136Z,32.30
2022-12-19T16:28:48.263Z,32.70
2022-12-19T16:31:57.984Z,32.30
2022-12-19T16:35:09.061Z,32.30
2022-12-19T16:38:17.302Z,32.20
2022-12-19T16:41:25.745Z,32.20
2022-12-19T16:44:34.996Z,32.00
2022-12-19T16:47:44.665Z,31.90
2022-12-19T16:50:52.986Z,32.50
2022-12-19T16:54:00.947Z,32.80
2022-12-19T16:57:12.297Z,32.90
2022-12-19T17:00:21.193Z,32.60
2022-12-19T17:03:33.558Z,32.20
2022-12-19T17:06:42.197Z,32.60
2022-12-19T17:09:50.222Z,32.70
2022-12-19T17:12:58.644Z,33.00
2022-12-19T17:16:07.353Z,32.70
2022-12-19T17:19:21.130Z,32.70
2022-12-19T17:22:29.819Z,32.90
2022-12-19T17:25:37.892Z,33.10
2022-12-19T17:28:47.918Z,32.80
2022-12-19T17:31:56.128Z,32.60
2022-12-19T17:35:05.857Z,32.90
2022-12-19T17:38:14.508Z,33.00
2022-12-19T17:41:22.324Z,33.00
2022-12-19T17:44:30.526Z,33.10
2022-12-19T17:47:38.744Z,32.90
2022-12-19T17:50:48.320Z,33.00
2022-12-19T17:53:56.263Z,32.70
2022-12-19T17:57:04.381Z,33.00
2022-12-19T18:00:13.478Z,33.20
2022-12-19T18:03:22.974Z,33.10
2022-12-19T18:06:32.364Z,32.80
2022-12-19T18:09:40.340Z,33.00
2022-12-19T18:12:48.454Z,33.00
2022-12-19T18:15:57.574Z,33.20
2022-12-19T18:19:05.959Z,32.90
2022-12-19T18:22:15.740Z,32.90
2022-12-19T18:25:25.038Z,33.10
2022-12-19T18:28:33.255Z,33.10
2022-12-19T18:31:48.092Z,33.00
2022-12-19T18:34:58.885Z,33.10
2022-12-19T18:38:09.413Z,33.00
2022-12-19T18:41:17.910Z,33.30
2022-12-19T18:44:26.166Z,33.00
2022-12-19T18:47:34.120Z,33.20
2022-12-19T18:50:42.748Z,32.90
2022-12-19T18:53:52.172Z,32.80
2022-12-19T18:57:00.177Z,33.00
2022-12-19T19:00:09.795Z,33.10
2022-12-19T19:03:18.511Z,32.90
2022-12-19T19:06:28.083Z,33.00
2022-12-19T19:09:37.592Z,33.30
2022-12-19T19:13:11.437Z,33.30
2022-12-19T19:16:20.738Z,33.10
2022-12-19T19:19:29.035Z,33.10
2022-12-19T19:22:37.171Z,33.20
2022-12-19T19:25:47.234Z,33.30
2022-12-19T19:28:55.351Z,33.50
2022-12-19T19:32:03.613Z,33.60
2022-12-19T19:35:11.888Z,33.30
2022-12-19T19:38:20.092Z,33.30
2022-12-19T19:41:30.719Z,33.30
2022-12-19T19:44:38.559Z,33.30
2022-12-19T19:47:46.818Z,33.50
2022-12-19T19:50:54.717Z,33.60
2022-12-19T19:54:02.720Z,33.80
2022-12-19T19:57:12.259Z,33.60
2022-12-19T20:00:21.409Z,33.70
2022-12-19T20:03:30.004Z,33.50
2022-12-19T20:06:38.243Z,33.60
2022-12-19T20:09:46.750Z,33.70
2022-12-19T20:12:56.349Z,33.60
2022-12-19T20:16:04.777Z,33.70
2022-12-19T20:19:12.963Z,34.00
2022-12-19T20:22:21.279Z,34.20
2022-12-19T20:25:29.291Z,34.10
2022-12-19T20:28:45.968Z,34.40
2022-12-19T20:31:57.324Z,34.20
2022-12-19T20:35:10.714Z,33.80
2022-12-19T20:38:21.935Z,34.30
2022-12-19T20:41:30.052Z,33.80
2022-12-19T20:44:39.383Z,33.60
2022-12-19T20:47:47.332Z,33.50
2022-12-19T20:50:57.147Z,33.80
2022-12-19T20:54:05.598Z,33.90
2022-12-19T20:57:13.658Z,33.90
2022-12-19T21:00:23.720Z,34.00
2022-12-19T21:03:31.795Z,34.30
2022-12-19T21:06:41.357Z,34.20
2022-12-19T21:09:50.905Z,34.50
2022-12-19T21:12:58.909Z,34.40
2022-12-19T21:16:10.681Z,34.10
2022-12-19T21:19:19.210Z,34.30
2022-12-19T21:22:27.455Z,34.40
2022-12-19T21:25:35.559Z,34.40
2022-12-19T21:28:43.507Z,34.40
2022-12-19T21:31:52.851Z,34.30
2022-12-19T21:35:00.932Z,34.30
2022-12-19T21:38:09.011Z,34.50
2022-12-19T21:41:19.067Z,34.40
2022-12-19T21:44:27.559Z,34.70
2022-12-19T21:47:39.296Z,34.30
2022-12-19T21:50:47.715Z,34.30
2022-12-19T21:53:56.216Z,34.10
2022-12-19T21:57:04.571Z,34.10
2022-12-19T22:00:13.465Z,34.30
2022-12-19T22:03:23.207Z,34.40
2022-12-19T22:06:32.159Z,34.70
2022-12-19T22:09:40.354Z,34.70
2022-12-19T22:12:48.265Z,34.60
2022-12-19T22:16:00.789Z,34.40
2022-12-19T22:19:10.962Z,34.50
2022-12-19T22:22:19.207Z,34.50
2022-12-19T22:25:27.068Z,34.90
2022-12-19T22:28:35.952Z,34.50
2022-12-19T22:31:44.394Z,34.40
2022-12-19T22:34:54.059Z,34.40
2022-12-19T22:38:02.261Z,34.50
2022-12-19T22:41:10.316Z,34.90
2022-12-19T22:44:18.951Z,34.70
2022-12-19T22:47:27.065Z,34.70
2022-12-19T22:50:36.760Z,34.40
2022-12-19T22:53:44.892Z,34.90
2022-12-19T22:56:52.861Z,34.80
2022-12-19T23:00:00.930Z,34.70
2022-12-19T23:03:08.980Z,34.70
2022-12-19T23:06:18.756Z,35.00
2022-12-19T23:09:27.589Z,34.90
2022-12-19T23:12:35.575Z,34.70
2022-12-19T23:15:43.442Z,34.80
2022-12-19T23:18:51.719Z,34.70
2022-12-19T23:22:01.355Z,35.30
2022-12-19T23:25:10.843Z,34.70
2022-12-19T23:28:18.791Z,34.70
2022-12-19T23:31:27.199Z,34.70
2022-12-19T23:34:35.069Z,35.10
2022-12-19T23:37:45.009Z,34.70
2022-12-19T23:40:53.068Z,34.90
2022-12-19T23:44:01.223Z,34.80
2022-12-19T23:47:09.443Z,35.10
2022-12-19T23:50:17.638Z,34.80
2022-12-19T23:53:26.853Z,34.90
2022-12-19T23:56:34.851Z,35.00
2022-12-19T23:59:43.263Z,35.70
